Time;durP1;ratioP1;P1;durP2;ratioP2;P2;SDS_P1;SDS_P2;PMS_P1;PMS_P2;Temp;Humidity;BMP_temperature;BMP_pressure;BME280_temperature;BME280_humidity;BME280_pressure;Samples;Min_cycle;Max_cycle;Signal;HPM_P1;HPM_P2
2021/07/10 00:00:20;;;;;;;;;;;;;;;13.03;100.00;96470.69;1053672;28;19905;-58
2021/07/10 00:00:51;;;;;;;;;;;;;;;13.02;100.00;96476.97;1053759;28;19908;-57
2021/07/10 00:01:21;;;;;;;;;;;;;;;13.05;100.00;96466.81;1053530;28;19908;-56
2021/07/10 00:01:51;;;;;;;;;;;;;;;13.05;100.00;96474.72;1053929;28;20318;-58
2021/07/10 00:02:22;;;;;;;;;;;;;;;13.10;100.00;96472.31;1054026;28;19984;-54
2021/07/10 00:02:52;;;;;;;;;;;;;;;13.08;100.00;96469.03;1054066;28;19908;-55
2021/07/10 00:03:22;;;;;;;;;;;;;;;13.06;100.00;96473.72;1053962;28;19940;-59
2021/07/10 00:03:52;;;;;;;;;;;;;;;13.06;100.00;96471.09;1054086;28;19908;-59
2021/07/10 00:04:23;;;;;;;;;;;;;;;13.05;100.00;96480.03;1053946;28;19915;-55
2021/07/10 00:04:53;;;;;;;;;;;;;;;13.04;100.00;96473.13;1054252;28;19912;-58
2021/07/10 00:05:23;;;;;;;;;;;;;;;13.00;100.00;96466.59;1054012;28;19915;-60
2021/07/10 00:05:54;;;;;;;;;;;;;;;12.97;100.00;96472.28;1053594;28;19912;-56
2021/07/10 00:06:24;;;;;;;;;;;;;;;12.98;100.00;96473.91;1053856;28;19904;-59
2021/07/10 00:06:54;;;;;;;;;;;;;;;12.94;100.00;96478.78;1054117;28;19916;-58
2021/07/10 00:07:25;;;;;;;;;;;;;;;12.94;100.00;96472.69;1053933;28;20377;-59
2021/07/10 00:07:55;;;;;;;;;;;;;;;12.94;100.00;96476.16;1053989;28;20254;-58
2021/07/10 00:08:25;;;;;;;;;;;;;;;12.94;100.00;96475.34;1053939;28;19916;-58
2021/07/10 00:08:56;;;;;;;;;;;;;;;12.92;100.00;96475.53;1054360;28;19908;-59
2021/07/10 00:09:26;;;;;;;;;;;;;;;12.95;100.00;96471.66;1054215;28;20385;-58
2021/07/10 00:09:57;;;;;;;;;;;;;;;12.92;100.00;96472.91;1053951;28;19999;-61
2021/07/10 00:10:27;;;;;;;;;;;;;;;12.92;100.00;96472.06;1053969;28;19916;-59
2021/07/10 00:10:57;;;;;;;;;;;;;;;12.91;100.00;96468.63;1049821;28;20323;-61
2021/07/10 00:11:27;;;;;;;;;;;;;;;12.90;100.00;96464.34;1049709;28;19912;-59
2021/07/10 00:11:58;;;;;;;;;;;;;;;12.90;100.00;96474.09;1053930;28;19912;-60
2021/07/10 00:12:28;;;;;;;;;;;;;;;12.90;100.00;96474.91;1053992;28;19912;-59
2021/07/10 00:12:58;;;;;;;;;;;;;;;12.90;100.00;96471.47;1054399;28;20265;-58
2021/07/10 00:13:29;;;;;;;;;;;;;;;12.86;100.00;96471.06;1054297;28;19923;-61
2021/07/10 00:13:59;;;;;;;;;;;;;;;12.87;100.00;96471.88;1054336;28;19916;-57
2021/07/10 00:14:29;;;;;;;;;;;;;;;12.86;100.00;96470.22;1053736;28;19912;-59
2021/07/10 00:14:59;;;;;;;;;;;;;;;12.91;100.00;96465.19;1054074;28;19912;-59
2021/07/10 00:15:30;;;;;;;;;;;;;;;12.90;100.00;96460.91;1053901;28;20327;-61
2021/07/10 00:16:00;;;;;;;;;;;;;;;12.91;100.00;96458.06;1053973;28;19961;-60
2021/07/10 00:16:30;;;;;;;;;;;;;;;12.92;100.00;96462.34;1054288;28;19912;-61
2021/07/10 00:17:01;;;;;;;;;;;;;;;12.92;100.00;96454.41;1054009;28;20304;-58
2021/07/10 00:17:31;;;;;;;;;;;;;;;12.92;100.00;96458.84;1054102;28;19919;-58
2021/07/10 00:18:01;;;;;;;;;;;;;;;13.02;100.00;96456.63;1054000;28;19920;-59
2021/07/10 00:18:31;;;;;;;;;;;;;;;13.03;100.00;96447.69;1054473;28;19959;-59
2021/07/10 00:19:02;;;;;;;;;;;;;;;13.06;100.00;96451.78;1054159;28;20125;-56
2021/07/10 00:19:32;;;;;;;;;;;;;;;13.02;100.00;96454.00;1053912;28;19922;-56
2021/07/10 00:20:05;;;;;;;;;;;;;;;12.99;100.00;96454.41;1054159;28;19908;-55
2021/07/10 00:20:36;;;;;;;;;;;;;;;12.97;100.00;96459.88;1053763;28;20261;-58
2021/07/10 00:21:06;;;;;;;;;;;;;;;12.96;100.00;96455.59;1053904;28;19912;-58
2021/07/10 00:21:36;;;;;;;;;;;;;;;12.95;100.00;96450.53;1062091;27;19919;-58
2021/07/10 00:22:07;;;;;;;;;;;;;;;12.91;100.00;96459.88;1062076;27;19914;-58
2021/07/10 00:22:37;;;;;;;;;;;;;;;12.88;100.00;96460.28;1062663;27;19907;-58
2021/07/10 00:23:07;;;;;;;;;;;;;;;12.91;100.00;96460.69;1062195;27;19908;-56
2021/07/10 00:23:38;;;;;;;;;;;;;;;12.94;100.00;96454.19;1053729;28;19998;-59
2021/07/10 00:24:08;;;;;;;;;;;;;;;12.90;100.00;96458.25;1052793;28;19942;-58
2021/07/10 00:24:38;;;;;;;;;;;;;;;12.90;100.00;96458.25;1053474;28;19919;-58
2021/07/10 00:25:09;;;;;;;;;;;;;;;12.89;100.00;96459.25;1052805;28;20014;-63
2021/07/10 00:25:40;;;;;;;;;;;;;;;12.89;100.00;96459.25;1053113;28;19912;-60
2021/07/10 00:26:10;;;;;;;;;;;;;;;12.88;100.00;96455.81;1053019;28;20335;-60
2021/07/10 00:26:40;;;;;;;;;;;;;;;12.91;100.00;96460.69;1053868;28;19912;-59
2021/07/10 00:27:11;;;;;;;;;;;;;;;12.89;100.00;96459.25;1053841;28;19939;-59
2021/07/10 00:27:41;;;;;;;;;;;;;;;12.87;100.00;96456.00;1053702;28;19916;-60
2021/07/10 00:28:11;;;;;;;;;;;;;;;12.87;100.00;96456.00;1057208;28;19911;-60
2021/07/10 00:28:51;;;;;;;;;;;;;;;12.87;100.00;96458.66;1057430;28;19916;-59
2021/07/10 00:29:21;;;;;;;;;;;;;;;12.85;100.00;96458.84;1056384;28;20064;-61
2021/07/10 00:29:52;;;;;;;;;;;;;;;12.95;100.00;96455.81;1053732;28;19928;-61
2021/07/10 00:30:22;;;;;;;;;;;;;;;12.91;100.00;96460.69;1053704;28;20403;-60
2021/07/10 00:30:52;;;;;;;;;;;;;;;12.86;100.00;96449.94;1053918;28;19904;-60
2021/07/10 00:31:23;;;;;;;;;;;;;;;12.86;100.00;96460.50;1054135;28;19942;-59
2021/07/10 00:31:53;;;;;;;;;;;;;;;12.86;100.00;96449.09;1053904;28;19958;-59
2021/07/10 00:32:23;;;;;;;;;;;;;;;12.90;100.00;96451.13;1053827;28;20339;-59
2021/07/10 00:32:54;;;;;;;;;;;;;;;12.95;100.00;96448.72;1054123;28;19908;-61
2021/07/10 00:33:24;;;;;;;;;;;;;;;12.96;100.00;96446.88;1054103;28;19905;-59
2021/07/10 00:33:54;;;;;;;;;;;;;;;12.93;100.00;96449.91;1054167;28;19916;-59
2021/07/10 00:34:24;;;;;;;;;;;;;;;13.06;100.00;96449.13;1053551;28;19912;-59
2021/07/10 00:34:55;;;;;;;;;;;;;;;13.10;100.00;96448.53;1054064;28;19953;-60
2021/07/10 00:35:25;;;;;;;;;;;;;;;13.12;100.00;96441.19;1053887;28;20322;-59
2021/07/10 00:35:55;;;;;;;;;;;;;;;13.11;100.00;96441.41;1054141;28;19908;-59
2021/07/10 00:36:25;;;;;;;;;;;;;;;13.06;100.00;96446.50;1053771;28;19963;-61
2021/07/10 00:36:56;;;;;;;;;;;;;;;13.09;100.00;96446.88;1053859;28;20320;-61
2021/07/10 00:37:26;;;;;;;;;;;;;;;13.08;100.00;96447.91;1054095;28;19961;-59
2021/07/10 00:37:56;;;;;;;;;;;;;;;13.07;100.00;96443.66;1053403;28;19915;-60
2021/07/10 00:38:27;;;;;;;;;;;;;;;13.20;100.00;96444.66;1053435;28;20315;-61
2021/07/10 00:38:57;;;;;;;;;;;;;;;13.11;100.00;96438.75;1053718;28;19920;-60
2021/07/10 00:39:27;;;;;;;;;;;;;;;13.09;100.00;96443.44;1053710;28;19908;-59
2021/07/10 00:39:57;;;;;;;;;;;;;;;13.05;100.00;96440.38;1054055;28;19909;-59
2021/07/10 00:40:28;;;;;;;;;;;;;;;13.03;100.00;96445.06;1053799;28;19944;-59
2021/07/10 00:40:58;;;;;;;;;;;;;;;12.97;100.00;96440.56;1053867;28;19912;-59
2021/07/10 00:41:28;;;;;;;;;;;;;;;12.98;100.00;96443.03;1053826;28;19915;-59
2021/07/10 00:41:59;;;;;;;;;;;;;;;13.00;100.00;96440.19;1053965;28;20327;-60
2021/07/10 00:42:29;;;;;;;;;;;;;;;12.96;100.00;96433.66;1053470;28;19971;-58
2021/07/10 00:42:59;;;;;;;;;;;;;;;12.96;100.00;96445.03;1053630;28;19908;-59
2021/07/10 00:43:29;;;;;;;;;;;;;;;12.91;100.00;96434.25;1053635;28;20317;-60
2021/07/10 00:44:00;;;;;;;;;;;;;;;12.92;100.00;96438.53;1053834;28;20313;-58
2021/07/10 00:44:30;;;;;;;;;;;;;;;12.87;100.00;96438.31;1053543;28;19908;-58
2021/07/10 00:45:01;;;;;;;;;;;;;;;12.87;100.00;96437.50;1053255;28;19919;-55
2021/07/10 00:45:31;;;;;;;;;;;;;;;12.84;100.00;96437.91;1049093;28;19993;-56
2021/07/10 00:46:01;;;;;;;;;;;;;;;12.83;100.00;96434.47;1044809;28;19955;-56
2021/07/10 00:46:32;;;;;;;;;;;;;;;12.88;100.00;96439.94;1045058;28;19928;-57
2021/07/10 00:47:02;;;;;;;;;;;;;;;12.90;100.00;96437.13;1048861;28;20262;-58
2021/07/10 00:47:33;;;;;;;;;;;;;;;12.88;100.00;96436.50;1051583;28;19912;-53
2021/07/10 00:48:03;;;;;;;;;;;;;;;12.87;100.00;96433.03;1049443;28;19908;-54
2021/07/10 00:48:33;;;;;;;;;;;;;;;12.92;100.00;96435.91;1053365;28;20343;-54
2021/07/10 00:49:04;;;;;;;;;;;;;;;12.88;100.00;96433.88;1053353;28;20387;-54
2021/07/10 00:49:34;;;;;;;;;;;;;;;12.82;100.00;96435.47;1053140;28;20325;-53
2021/07/10 00:50:11;;;;;;;;;;;;;;;12.80;100.00;96435.69;1053659;28;19908;-58
2021/07/10 00:50:42;;;;;;;;;;;;;;;12.79;100.00;96428.75;1052722;28;19995;-56
2021/07/10 00:51:12;;;;;;;;;;;;;;;12.77;100.00;96443.22;1053433;28;19912;-57
2021/07/10 00:51:42;;;;;;;;;;;;;;;12.75;100.00;96437.28;1053492;28;19908;-57
2021/07/10 00:52:13;;;;;;;;;;;;;;;12.73;100.00;96437.50;1061713;27;19913;-56
2021/07/10 00:52:43;;;;;;;;;;;;;;;12.73;100.00;96436.69;1061540;27;19944;-57
2021/07/10 00:53:13;;;;;;;;;;;;;;;12.68;100.00;96434.66;1057490;28;19912;-56
2021/07/10 00:53:43;;;;;;;;;;;;;;;12.68;100.00;96434.66;1057521;28;20011;-58
2021/07/10 00:54:14;;;;;;;;;;;;;;;12.72;100.00;96433.25;1053126;28;19916;-58
2021/07/10 00:54:44;;;;;;;;;;;;;;;12.76;100.00;96434.44;1053100;28;20001;-59
2021/07/10 00:55:14;;;;;;;;;;;;;;;12.77;100.00;96422.06;1053333;28;20312;-58
2021/07/10 00:55:45;;;;;;;;;;;;;;;12.75;100.00;96426.72;1053389;28;19958;-59
2021/07/10 00:56:15;;;;;;;;;;;;;;;12.71;100.00;96431.59;1053421;28;20286;-56
2021/07/10 00:56:46;;;;;;;;;;;;;;;12.68;100.00;96429.38;1053313;28;19919;-57
2021/07/10 00:57:16;;;;;;;;;;;;;;;12.68;100.00;96433.81;1053203;28;19965;-59
2021/07/10 00:57:46;;;;;;;;;;;;;;;12.75;100.00;96432.84;1053010;28;19919;-57
2021/07/10 00:58:17;;;;;;;;;;;;;;;12.70;100.00;96427.31;1053411;28;20328;-59
2021/07/10 00:58:47;;;;;;;;;;;;;;;12.78;100.00;96432.44;1057209;28;19916;-56
2021/07/10 00:59:17;;;;;;;;;;;;;;;12.74;100.00;96433.84;1057559;28;19992;-58
2021/07/10 00:59:48;;;;;;;;;;;;;;;12.73;100.00;96431.41;1061682;27;19987;-58
2021/07/10 01:00:19;;;;;;;;;;;;;;;12.70;100.00;96424.69;1061824;27;19912;-58
2021/07/10 01:00:49;;;;;;;;;;;;;;;12.72;100.00;96421.84;1053609;28;20003;-57
2021/07/10 01:01:19;;;;;;;;;;;;;;;12.68;100.00;96424.09;1053770;28;19920;-58
2021/07/10 01:01:50;;;;;;;;;;;;;;;12.65;100.00;96427.13;1053609;28;20225;-58
2021/07/10 01:02:20;;;;;;;;;;;;;;;12.62;100.00;96428.34;1053479;28;19912;-54
2021/07/10 01:02:51;;;;;;;;;;;;;;;12.61;100.00;96426.69;1057802;28;19918;-54
2021/07/10 01:03:21;;;;;;;;;;;;;;;12.61;100.00;96425.88;1053703;28;20415;-56
2021/07/10 01:03:51;;;;;;;;;;;;;;;12.63;100.00;96429.13;1053780;28;19988;-57
2021/07/10 01:04:22;;;;;;;;;;;;;;;12.70;100.00;96423.88;1057510;28;20326;-59
2021/07/10 01:04:52;;;;;;;;;;;;;;;12.70;100.00;96423.88;1057407;28;19961;-57
2021/07/10 01:05:23;;;;;;;;;;;;;;;12.82;100.00;96424.09;1061608;27;20008;-58
2021/07/10 01:05:54;;;;;;;;;;;;;;;12.88;100.00;96424.09;1057490;28;20312;-58
2021/07/10 01:06:24;;;;;;;;;;;;;;;12.88;100.00;96418.00;1057483;28;19911;-58
2021/07/10 01:06:54;;;;;;;;;;;;;;;12.80;100.00;96419.81;1053029;28;19922;-58
2021/07/10 01:07:24;;;;;;;;;;;;;;;12.87;100.00;96419.03;1053254;28;19916;-56
2021/07/10 01:07:55;;;;;;;;;;;;;;;12.80;100.00;96411.91;1053568;28;19919;-57
2021/07/10 01:08:25;;;;;;;;;;;;;;;12.79;100.00;96412.09;1053108;28;19916;-59
2021/07/10 01:08:56;;;;;;;;;;;;;;;12.90;100.00;96413.31;1053365;28;19908;-59
2021/07/10 01:09:26;;;;;;;;;;;;;;;13.00;100.00;96415.56;1053146;28;19912;-55
2021/07/10 01:09:56;;;;;;;;;;;;;;;13.00;100.00;96407.63;1053043;28;19924;-56
2021/07/10 01:10:27;;;;;;;;;;;;;;;12.93;100.00;96419.00;1048817;28;19923;-58
2021/07/10 01:10:57;;;;;;;;;;;;;;;12.86;100.00;96410.28;1053081;28;19972;-58
2021/07/10 01:11:27;;;;;;;;;;;;;;;12.90;100.00;96408.03;1057414;28;19933;-57
2021/07/10 01:11:58;;;;;;;;;;;;;;;12.91;100.00;96407.03;1057455;28;19919;-57
2021/07/10 01:12:29;;;;;;;;;;;;;;;12.97;100.00;96414.94;1053063;28;19912;-58
2021/07/10 01:12:59;;;;;;;;;;;;;;;12.90;100.00;96415.97;1053143;28;19916;-59
2021/07/10 01:13:29;;;;;;;;;;;;;;;12.77;100.00;96414.16;1053116;28;19959;-57
2021/07/10 01:14:00;;;;;;;;;;;;;;;12.78;100.00;96416.59;1052976;28;19916;-59
2021/07/10 01:14:30;;;;;;;;;;;;;;;12.83;100.00;96404.56;1057181;28;20365;-57
2021/07/10 01:15:00;;;;;;;;;;;;;;;12.80;100.00;96406.63;1053190;28;19982;-58
2021/07/10 01:15:31;;;;;;;;;;;;;;;12.85;100.00;96411.28;1048865;28;20317;-58
2021/07/10 01:16:02;;;;;;;;;;;;;;;12.87;100.00;96408.44;1048882;28;19912;-58
2021/07/10 01:16:33;;;;;;;;;;;;;;;12.80;100.00;96408.47;1053061;28;19912;-58
2021/07/10 01:17:03;;;;;;;;;;;;;;;12.78;100.00;96410.47;1053166;28;19944;-57
2021/07/10 01:17:33;;;;;;;;;;;;;;;12.77;100.00;96409.66;1053512;28;19912;-56
2021/07/10 01:18:03;;;;;;;;;;;;;;;12.76;100.00;96410.66;1053538;28;20360;-56
2021/07/10 01:18:34;;;;;;;;;;;;;;;12.75;100.00;96411.69;1053406;28;19966;-59
2021/07/10 01:19:04;;;;;;;;;;;;;;;12.72;100.00;96412.09;1048710;28;19962;-54
2021/07/10 01:19:34;;;;;;;;;;;;;;;12.71;100.00;96409.66;1048900;28;19913;-58
2021/07/10 01:20:09;;;;;;;;;;;;;;;12.71;100.00;96414.94;1049106;28;19908;-57
2021/07/10 01:20:48;;;;;;;;;;;;;;;12.73;100.00;96412.91;1049409;28;19916;-56
2021/07/10 01:21:19;;;;;;;;;;;;;;;12.68;100.00;96413.50;1057561;28;19915;-58
2021/07/10 01:21:49;;;;;;;;;;;;;;;12.67;100.00;96419.00;1057661;28;19915;-56
2021/07/10 01:22:19;;;;;;;;;;;;;;;12.65;100.00;96416.56;1057413;28;19911;-57
2021/07/10 01:22:50;;;;;;;;;;;;;;;12.64;100.00;96417.56;1057427;28;19911;-58
2021/07/10 01:23:20;;;;;;;;;;;;;;;12.66;100.00;96417.38;1053451;28;20388;-57
2021/07/10 01:23:51;;;;;;;;;;;;;;;12.59;100.00;96414.72;1053162;28;19946;-57
2021/07/10 01:24:21;;;;;;;;;;;;;;;12.64;100.00;96414.91;1053654;28;19912;-58
2021/07/10 01:24:51;;;;;;;;;;;;;;;12.66;100.00;96417.38;1053717;28;19919;-57
2021/07/10 01:25:22;;;;;;;;;;;;;;;12.64;100.00;96403.56;1053754;28;19946;-56
2021/07/10 01:25:52;;;;;;;;;;;;;;;12.62;100.00;96407.19;1053528;28;19996;-58
2021/07/10 01:26:23;;;;;;;;;;;;;;;12.79;100.00;96406.81;1053664;28;19994;-60
2021/07/10 01:26:53;;;;;;;;;;;;;;;12.75;100.00;96405.59;1053188;28;19908;-56
2021/07/10 01:27:23;;;;;;;;;;;;;;;12.77;100.00;96406.22;1053638;28;19904;-55
2021/07/10 01:27:55;;;;;;;;;;;;;;;12.87;100.00;96406.59;1053635;28;19904;-57
2021/07/10 01:28:25;;;;;;;;;;;;;;;12.76;100.00;96402.75;1053729;28;19916;-56
2021/07/10 01:28:55;;;;;;;;;;;;;;;12.75;100.00;96400.31;1053527;28;19923;-58
2021/07/10 01:29:26;;;;;;;;;;;;;;;12.75;100.00;96402.94;1053139;28;19934;-55
2021/07/10 01:29:57;;;;;;;;;;;;;;;12.70;100.00;96397.47;1053339;28;19908;-58
2021/07/10 01:30:27;;;;;;;;;;;;;;;12.69;100.00;96398.47;1053125;28;19986;-57
2021/07/10 01:30:57;;;;;;;;;;;;;;;12.73;100.00;96403.16;1053261;28;19954;-57
2021/07/10 01:31:28;;;;;;;;;;;;;;;12.67;100.00;96398.66;1053273;28;19935;-58
2021/07/10 01:32:00;;;;;;;;;;;;;;;12.69;100.00;96395.81;1040330;28;19925;-57
2021/07/10 01:32:30;;;;;;;;;;;;;;;12.69;100.00;96393.97;1044837;28;19964;-57
2021/07/10 01:33:01;;;;;;;;;;;;;;;12.69;100.00;96391.34;1045330;28;19936;-58
2021/07/10 01:33:31;;;;;;;;;;;;;;;12.67;100.00;96392.59;1045764;28;19966;-54
2021/07/10 01:34:01;;;;;;;;;;;;;;;12.65;100.00;96390.16;1057201;28;19911;-58
2021/07/10 01:34:34;;;;;;;;;;;;;;;12.61;100.00;96383.63;1053185;28;19912;-58
2021/07/10 01:37:02;;;;;;;;;;;;;;;12.56;100.00;96392.16;1050540;28;19974;-58
2021/07/10 01:37:32;;;;;;;;;;;;;;;12.75;100.00;96389.72;1050779;28;19924;-57
2021/07/10 01:38:12;;;;;;;;;;;;;;;12.68;100.00;96383.63;1053398;28;19912;-59
2021/07/10 01:38:42;;;;;;;;;;;;;;;12.65;100.00;96382.22;1053256;28;19913;-58
2021/07/10 01:39:13;;;;;;;;;;;;;;;12.76;100.00;96392.16;1053422;28;20305;-60
2021/07/10 01:39:43;;;;;;;;;;;;;;;12.71;100.00;96384.06;1053245;28;20364;-57
2021/07/10 01:40:14;;;;;;;;;;;;;;;12.62;100.00;96380.78;1053111;28;19912;-58
2021/07/10 01:40:45;;;;;;;;;;;;;;;12.62;100.00;96383.41;1053208;28;20277;-58
2021/07/10 01:41:15;;;;;;;;;;;;;;;12.65;100.00;96384.84;1053257;28;19919;-57
2021/07/10 01:41:46;;;;;;;;;;;;;;;12.59;100.00;96383.03;1053248;28;19908;-55
2021/07/10 01:42:16;;;;;;;;;;;;;;;12.71;100.00;96372.69;1052986;28;20364;-58
2021/07/10 01:42:46;;;;;;;;;;;;;;;12.66;100.00;96383.03;1049076;28;20308;-57
2021/07/10 01:43:17;;;;;;;;;;;;;;;12.73;100.00;96379.38;1049005;28;19912;-57
2021/07/10 01:43:47;;;;;;;;;;;;;;;12.75;100.00;96380.00;1048812;28;19955;-58
2021/07/10 01:44:17;;;;;;;;;;;;;;;12.75;100.00;96377.34;1053112;28;19908;-58
2021/07/10 01:44:49;;;;;;;;;;;;;;;12.78;100.00;96376.13;1053465;28;19912;-58
2021/07/10 01:45:20;;;;;;;;;;;;;;;12.78;100.00;96384.88;1053411;28;19970;-57
2021/07/10 01:45:51;;;;;;;;;;;;;;;12.82;100.00;96379.19;1053217;28;19919;-58
2021/07/10 01:46:21;;;;;;;;;;;;;;;12.82;100.00;96382.63;1053012;28;19919;-56
2021/07/10 01:46:51;;;;;;;;;;;;;;;12.82;100.00;96384.47;1053078;28;19920;-57
2021/07/10 01:47:21;;;;;;;;;;;;;;;12.82;100.00;96379.19;1057119;28;19912;-56
2021/07/10 01:47:52;;;;;;;;;;;;;;;12.79;100.00;96375.91;1061320;27;19922;-57
2021/07/10 01:48:22;;;;;;;;;;;;;;;12.81;100.00;96367.78;1062024;27;19967;-57
2021/07/10 01:48:52;;;;;;;;;;;;;;;12.75;100.00;96380.00;1057300;28;19912;-57
2021/07/10 01:49:23;;;;;;;;;;;;;;;12.77;100.00;96377.16;1052914;28;19944;-57
2021/07/10 01:49:53;;;;;;;;;;;;;;;12.66;100.00;96375.91;1048851;28;19920;-57
2021/07/10 01:50:23;;;;;;;;;;;;;;;12.66;100.00;96383.81;1049056;28;20386;-57
2021/07/10 01:50:54;;;;;;;;;;;;;;;12.70;100.00;96374.50;1048867;28;19951;-56
2021/07/10 01:51:24;;;;;;;;;;;;;;;12.72;100.00;96375.13;1053237;28;20031;-59
2021/07/10 01:51:54;;;;;;;;;;;;;;;12.66;100.00;96373.25;1052995;28;20388;-57
2021/07/10 01:52:24;;;;;;;;;;;;;;;12.65;100.00;96370.81;1049167;28;19951;-55
2021/07/10 01:52:55;;;;;;;;;;;;;;;12.67;100.00;96371.44;1048739;28;19912;-58
2021/07/10 01:53:25;;;;;;;;;;;;;;;12.54;100.00;96366.94;1048756;28;20380;-54
2021/07/10 01:53:55;;;;;;;;;;;;;;;12.66;100.00;96370.63;1048445;28;19912;-57
2021/07/10 01:54:26;;;;;;;;;;;;;;;12.64;100.00;96361.28;1053021;28;19912;-58
2021/07/10 01:54:56;;;;;;;;;;;;;;;12.62;100.00;96369.41;1053088;28;19916;-56
2021/07/10 01:55:28;;;;;;;;;;;;;;;12.62;100.00;96369.41;1052880;28;19919;-55
2021/07/10 01:55:58;;;;;;;;;;;;;;;12.62;100.00;96372.06;1052983;28;20285;-58
2021/07/10 01:56:28;;;;;;;;;;;;;;;12.62;100.00;96369.41;1053419;28;19913;-58
2021/07/10 01:56:59;;;;;;;;;;;;;;;12.58;100.00;96365.53;1053402;28;19912;-58
2021/07/10 01:57:29;;;;;;;;;;;;;;;12.64;100.00;96369.22;1053228;28;20323;-57
2021/07/10 01:58:01;;;;;;;;;;;;;;;12.72;100.00;96367.19;1053303;28;19912;-59
2021/07/10 01:58:32;;;;;;;;;;;;;;;12.67;100.00;96366.97;1053239;28;19931;-58
2021/07/10 01:59:02;;;;;;;;;;;;;;;12.65;100.00;96368.19;1053407;28;19916;-59
2021/07/10 01:59:32;;;;;;;;;;;;;;;12.57;100.00;96361.25;1053032;28;19916;-58
2021/07/10 02:00:09;;;;;;;;;;;;;;;12.52;100.00;96361.06;1052976;28;20352;-56
2021/07/10 02:00:40;;;;;;;;;;;;;;;12.42;100.00;96362.28;1049064;28;19913;-59
2021/07/10 02:01:11;;;;;;;;;;;;;;;12.42;100.00;96364.91;1050025;28;19919;-57
2021/07/10 02:01:45;;;;;;;;;;;;;;;12.40;100.00;96363.47;1053211;28;19927;-58
2021/07/10 02:02:15;;;;;;;;;;;;;;;12.47;100.00;96360.88;1053039;28;20275;-57
2021/07/10 02:02:46;;;;;;;;;;;;;;;12.46;100.00;96370.59;1053622;28;19923;-58
2021/07/10 02:03:16;;;;;;;;;;;;;;;12.44;100.00;96362.88;1053462;28;19965;-59
2021/07/10 02:03:46;;;;;;;;;;;;;;;12.41;100.00;96365.91;1053432;28;19947;-56
2021/07/10 02:04:18;;;;;;;;;;;;;;;12.39;100.00;96357.41;1052932;28;20309;-58
2021/07/10 02:04:49;;;;;;;;;;;;;;;12.32;100.00;96355.75;1053254;28;19912;-59
2021/07/10 02:05:20;;;;;;;;;;;;;;;12.28;100.00;96363.25;1052827;28;19978;-62
2021/07/10 02:05:50;;;;;;;;;;;;;;;12.36;100.00;96363.06;1052490;28;19912;-58
2021/07/10 02:06:22;;;;;;;;;;;;;;;12.46;100.00;96364.50;1053341;28;20037;-56
2021/07/10 02:06:53;;;;;;;;;;;;;;;12.47;100.00;96361.66;1052941;28;19916;-56
2021/07/10 02:07:23;;;;;;;;;;;;;;;12.54;100.00;96364.31;1048913;28;19912;-55
2021/07/10 02:07:53;;;;;;;;;;;;;;;12.49;100.00;96364.91;1048988;28;19962;-59
2021/07/10 02:08:24;;;;;;;;;;;;;;;12.65;100.00;96358.44;1049045;28;20427;-58
2021/07/10 02:08:54;;;;;;;;;;;;;;;12.58;100.00;96358.41;1053083;28;19984;-58
2021/07/10 02:09:24;;;;;;;;;;;;;;;12.57;100.00;96356.81;1053245;28;19919;-55
2021/07/10 02:09:55;;;;;;;;;;;;;;;12.58;100.00;96360.25;1053385;28;19913;-54
2021/07/10 02:10:26;;;;;;;;;;;;;;;12.54;100.00;96354.56;1053212;28;19923;-59
2021/07/10 02:10:56;;;;;;;;;;;;;;;12.56;100.00;96354.38;1053391;28;19994;-59
2021/07/10 02:11:26;;;;;;;;;;;;;;;12.57;100.00;96350.69;1053466;28;19909;-56
2021/07/10 02:11:56;;;;;;;;;;;;;;;12.61;100.00;96351.94;1053429;28;20342;-58
2021/07/10 02:12:27;;;;;;;;;;;;;;;12.51;100.00;96354.97;1053511;28;19908;-55
2021/07/10 02:12:59;;;;;;;;;;;;;;;12.43;100.00;96350.72;1053222;28;20267;-57
2021/07/10 02:13:29;;;;;;;;;;;;;;;12.58;100.00;96353.13;1053193;28;19964;-57
2021/07/10 02:13:59;;;;;;;;;;;;;;;12.53;100.00;96346.84;1053401;28;19938;-59
2021/07/10 02:14:30;;;;;;;;;;;;;;;12.51;100.00;96346.22;1053186;28;19916;-57
2021/07/10 02:15:00;;;;;;;;;;;;;;;12.55;100.00;96340.34;1053324;28;19932;-57
2021/07/10 02:15:30;;;;;;;;;;;;;;;12.52;100.00;96339.94;1053343;28;20408;-56
2021/07/10 02:16:01;;;;;;;;;;;;;;;12.49;100.00;96343.78;1052961;28;20357;-55
2021/07/10 02:16:31;;;;;;;;;;;;;;;12.42;100.00;96342.97;1052941;28;19920;-57
2021/07/10 02:17:01;;;;;;;;;;;;;;;12.40;100.00;96339.72;1048332;28;20377;-59
2021/07/10 02:17:32;;;;;;;;;;;;;;;12.39;100.00;96341.56;1048965;28;19904;-57
2021/07/10 02:18:02;;;;;;;;;;;;;;;12.35;100.00;96332.41;1048850;28;19920;-58
2021/07/10 02:18:32;;;;;;;;;;;;;;;12.35;100.00;96337.69;1048980;28;19909;-57
2021/07/10 02:19:03;;;;;;;;;;;;;;;12.36;100.00;96335.84;1052925;28;20396;-58
2021/07/10 02:19:33;;;;;;;;;;;;;;;12.33;100.00;96329.16;1053036;28;20545;-55
2021/07/10 02:20:04;;;;;;;;;;;;;;;12.26;100.00;96334.41;1053240;28;19904;-57
2021/07/10 02:20:35;;;;;;;;;;;;;;;12.24;100.00;96331.16;1053493;28;19915;-58
2021/07/10 02:21:05;;;;;;;;;;;;;;;12.21;100.00;96336.84;1052939;28;19915;-59
2021/07/10 02:21:36;;;;;;;;;;;;;;;12.22;100.00;96335.00;1052946;28;20001;-59
2021/07/10 02:22:06;;;;;;;;;;;;;;;12.29;100.00;96332.41;1048729;28;19909;-58
2021/07/10 02:22:37;;;;;;;;;;;;;;;12.30;100.00;96329.56;1044930;28;19908;-58
2021/07/10 02:23:07;;;;;;;;;;;;;;;12.23;100.00;96334.81;1048925;28;19905;-57
2021/07/10 02:23:37;;;;;;;;;;;;;;;12.16;100.00;96328.72;1048761;28;19930;-57
2021/07/10 02:24:07;;;;;;;;;;;;;;;12.12;100.00;96335.41;1052982;28;19915;-59
2021/07/10 02:24:38;;;;;;;;;;;;;;;12.09;100.00;96333.97;1052819;28;19908;-59
2021/07/10 02:25:08;;;;;;;;;;;;;;;12.11;100.00;96333.78;1052967;28;19908;-58
2021/07/10 02:25:39;;;;;;;;;;;;;;;12.13;100.00;96336.22;1053314;28;20351;-58
2021/07/10 02:26:09;;;;;;;;;;;;;;;12.20;100.00;96334.41;1053150;28;19961;-57
2021/07/10 02:26:39;;;;;;;;;;;;;;;12.12;100.00;96321.41;1052772;28;19919;-58
2021/07/10 02:27:09;;;;;;;;;;;;;;;12.05;100.00;96332.72;1052718;28;19918;-58
2021/07/10 02:27:40;;;;;;;;;;;;;;;12.04;100.00;96330.28;1052828;28;19908;-58
2021/07/10 02:28:10;;;;;;;;;;;;;;;12.15;100.00;96328.91;1053166;28;19933;-55
2021/07/10 02:28:40;;;;;;;;;;;;;;;12.12;100.00;96326.69;1053635;28;19915;-58
2021/07/10 02:29:11;;;;;;;;;;;;;;;12.09;100.00;96330.53;1053441;28;19912;-58
2021/07/10 02:29:41;;;;;;;;;;;;;;;12.06;100.00;96326.44;1053130;28;19930;-58
2021/07/10 02:30:12;;;;;;;;;;;;;;;12.02;100.00;96327.03;1052995;28;19908;-58
2021/07/10 02:30:42;;;;;;;;;;;;;;;12.13;100.00;96328.28;1053195;28;19908;-57
2021/07/10 02:31:13;;;;;;;;;;;;;;;12.26;100.00;96330.97;1053064;28;19914;-58
2021/07/10 02:31:43;;;;;;;;;;;;;;;12.23;100.00;96323.44;1053360;28;20013;-58
2021/07/10 02:32:13;;;;;;;;;;;;;;;12.19;100.00;96328.31;1053140;28;19939;-59
2021/07/10 02:32:44;;;;;;;;;;;;;;;12.14;100.00;96336.00;1053327;28;19927;-58
2021/07/10 02:33:15;;;;;;;;;;;;;;;12.20;100.00;96329.13;1053307;28;20379;-60
2021/07/10 02:33:45;;;;;;;;;;;;;;;12.37;100.00;96329.56;1053390;28;19999;-58
2021/07/10 02:34:16;;;;;;;;;;;;;;;12.35;100.00;96329.75;1053144;28;19904;-54
2021/07/10 02:34:46;;;;;;;;;;;;;;;12.32;100.00;96324.88;1053289;28;20273;-56
2021/07/10 02:35:16;;;;;;;;;;;;;;;12.34;100.00;96328.13;1052926;28;19933;-59
2021/07/10 02:35:48;;;;;;;;;;;;;;;12.42;100.00;96327.94;1052954;28;19901;-55
2021/07/10 02:36:18;;;;;;;;;;;;;;;12.36;100.00;96338.47;1048745;28;20371;-58
2021/07/10 02:36:48;;;;;;;;;;;;;;;12.47;100.00;96337.91;1053153;28;19910;-58
2021/07/10 02:37:19;;;;;;;;;;;;;;;12.39;100.00;96333.63;1052484;28;20016;-58
2021/07/10 02:37:49;;;;;;;;;;;;;;;12.48;100.00;96334.25;1052893;28;19908;-58
2021/07/10 02:38:20;;;;;;;;;;;;;;;12.49;100.00;96330.56;1053471;28;20328;-55
2021/07/10 02:38:50;;;;;;;;;;;;;;;12.50;100.00;96329.56;1053321;28;19909;-56